sensor_id;sensor_type;location;lat;lon;timestamp;pressure;altitude;pressure_sealevel;temperature;humidity
40245;BME280;25963;42.694;23.600;2023-04-07T00:01:52;94946.47;;;0.51;100.00
40245;BME280;25963;42.694;23.600;2023-04-07T00:04:18;94947.63;;;0.56;100.00
40245;BME280;25963;42.694;23.600;2023-04-07T00:06:44;94953.75;;;0.47;100.00
40245;BME280;25963;42.694;23.600;2023-04-07T00:09:09;94966.25;;;0.43;100.00
40245;BME280;25963;42.694;23.600;2023-04-07T00:11:35;94960.56;;;0.32;100.00
40245;BME280;25963;42.694;23.600;2023-04-07T00:14:01;94959.44;;;0.34;100.00
40245;BME280;25963;42.694;23.600;2023-04-07T00:16:27;94956.66;;;0.36;100.00
40245;BME280;25963;42.694;23.600;2023-04-07T00:18:52;94967.88;;;0.36;100.00
40245;BME280;25963;42.694;23.600;2023-04-07T00:21:18;94944.16;;;0.23;100.00
40245;BME280;25963;42.694;23.600;2023-04-07T00:23:43;94941.06;;;0.19;100.00
40245;BME280;25963;42.694;23.600;2023-04-07T00:26:09;94944.47;;;0.20;100.00
40245;BME280;25963;42.694;23.600;2023-04-07T00:28:34;94935.38;;;0.08;100.00
40245;BME280;25963;42.694;23.600;2023-04-07T00:31:00;94943.19;;;0.16;100.00
40245;BME280;25963;42.694;23.600;2023-04-07T00:33:25;94934.38;;;0.09;100.00
40245;BME280;25963;42.694;23.600;2023-04-07T00:35:51;94953.91;;;0.21;100.00
40245;BME280;25963;42.694;23.600;2023-04-07T00:38:18;94924.31;;;-0.03;100.00
40245;BME280;25963;42.694;23.600;2023-04-07T00:40:44;94940.22;;;0.03;100.00
40245;BME280;25963;42.694;23.600;2023-04-07T00:43:09;94948.03;;;0.11;100.00
40245;BME280;25963;42.694;23.600;2023-04-07T00:45:35;94948.03;;;0.11;100.00
40245;BME280;25963;42.694;23.600;2023-04-07T00:48:01;94923.00;;;-0.07;100.00
40245;BME280;25963;42.694;23.600;2023-04-07T00:50:26;94946.09;;;0.13;100.00
40245;BME280;25963;42.694;23.600;2023-04-07T00:52:52;94912.78;;;-0.16;100.00
40245;BME280;25963;42.694;23.600;2023-04-07T00:55:19;94939.78;;;-0.27;100.00
40245;BME280;25963;42.694;23.600;2023-04-07T00:57:44;94943.34;;;-0.28;100.00
40245;BME280;25963;42.694;23.600;2023-04-07T01:00:11;94939.38;;;-0.49;100.00
40245;BME280;25963;42.694;23.600;2023-04-07T01:02:42;94945.63;;;-0.25;100.00
40245;BME280;25963;42.694;23.600;2023-04-07T01:05:22;94923.84;;;-0.40;100.00
40245;BME280;25963;42.694;23.600;2023-04-07T01:10:36;94934.91;;;-0.30;100.00
40245;BME280;25963;42.694;23.600;2023-04-07T01:13:33;94939.78;;;-0.27;100.00
40245;BME280;25963;42.694;23.600;2023-04-07T01:16:08;94942.69;;;-0.30;100.00
40245;BME280;25963;42.694;23.600;2023-04-07T01:18:37;94924.47;;;-0.47;100.00
40245;BME280;25963;42.694;23.600;2023-04-07T01:21:06;94937.56;;;-0.56;100.00
40245;BME280;25963;42.694;23.600;2023-04-07T01:26:24;94942.75;;;-0.48;100.00
40245;BME280;25963;42.694;23.600;2023-04-07T01:31:36;94919.19;;;-0.71;100.00
40245;BME280;25963;42.694;23.600;2023-04-07T01:34:04;94931.53;;;-0.65;100.00
40245;BME280;25963;42.694;23.600;2023-04-07T01:36:31;94919.94;;;-0.79;100.00
40245;BME280;25963;42.694;23.600;2023-04-07T01:38:58;94941.16;;;-0.75;100.00
40245;BME280;25963;42.694;23.600;2023-04-07T01:41:24;94913.59;;;-0.84;100.00
40245;BME280;25963;42.694;23.600;2023-04-07T01:43:52;94910.19;;;-0.85;100.00
40245;BME280;25963;42.694;23.600;2023-04-07T01:46:18;94923.66;;;-0.81;100.00
40245;BME280;25963;42.694;23.600;2023-04-07T01:48:44;94936.66;;;-0.73;100.00
40245;BME280;25963;42.694;23.600;2023-04-07T01:51:11;94920.56;;;-0.85;100.00
40245;BME280;25963;42.694;23.600;2023-04-07T01:53:41;94920.34;;;-0.92;100.00
40245;BME280;25963;42.694;23.600;2023-04-07T01:56:07;94921.34;;;-0.93;100.00
40245;BME280;25963;42.694;23.600;2023-04-07T01:58:33;94911.34;;;-1.05;100.00
40245;BME280;25963;42.694;23.600;2023-04-07T02:00:58;94921.56;;;-1.04;100.00
40245;BME280;25963;42.694;23.600;2023-04-07T02:03:39;94909.75;;;-1.06;100.00
40245;BME280;25963;42.694;23.600;2023-04-07T02:06:08;94925.41;;;-1.08;100.00
40245;BME280;25963;42.694;23.600;2023-04-07T02:08:40;94908.94;;;-1.51;100.00
40245;BME280;25963;42.694;23.600;2023-04-07T02:11:07;94911.50;;;-1.51;100.00
40245;BME280;25963;42.694;23.600;2023-04-07T02:13:36;94922.25;;;-1.46;100.00
40245;BME280;25963;42.694;23.600;2023-04-07T02:16:03;94917.97;;;-1.55;100.00
40245;BME280;25963;42.694;23.600;2023-04-07T02:18:30;94924.16;;;-1.48;100.00
40245;BME280;25963;42.694;23.600;2023-04-07T02:20:57;94914.78;;;-1.67;100.00
40245;BME280;25963;42.694;23.600;2023-04-07T02:23:23;94908.25;;;-1.71;100.00
40245;BME280;25963;42.694;23.600;2023-04-07T02:25:49;94924.75;;;-1.54;100.00
40245;BME280;25963;42.694;23.600;2023-04-07T02:28:14;94933.19;;;-1.52;100.00
40245;BME280;25963;42.694;23.600;2023-04-07T02:30:40;94911.72;;;-1.98;100.00
40245;BME280;25963;42.694;23.600;2023-04-07T02:33:06;94916.41;;;-1.84;100.00
40245;BME280;25963;42.694;23.600;2023-04-07T02:35:31;94918.78;;;-1.72;100.00
40245;BME280;25963;42.694;23.600;2023-04-07T02:37:56;94925.13;;;-1.67;100.00
40245;BME280;25963;42.694;23.600;2023-04-07T02:40:22;94919.75;;;-1.73;100.00
40245;BME280;25963;42.694;23.600;2023-04-07T02:42:47;94899.91;;;-1.83;100.00
40245;BME280;25963;42.694;23.600;2023-04-07T02:45:13;94914.88;;;-1.76;100.00
40245;BME280;25963;42.694;23.600;2023-04-07T02:47:38;94915.06;;;-1.88;100.00
40245;BME280;25963;42.694;23.600;2023-04-07T02:50:04;94917.44;;;-1.94;100.00
40245;BME280;25963;42.694;23.600;2023-04-07T02:52:30;94924.16;;;-1.84;100.00
40245;BME280;25963;42.694;23.600;2023-04-07T02:54:56;94927.31;;;-1.90;100.00
40245;BME280;25963;42.694;23.600;2023-04-07T02:57:21;94941.16;;;-1.63;100.00
40245;BME280;25963;42.694;23.600;2023-04-07T02:59:47;94940.28;;;-1.54;100.00
40245;BME280;25963;42.694;23.600;2023-04-07T03:02:12;94926.06;;;-1.68;100.00
40245;BME280;25963;42.694;23.600;2023-04-07T03:04:38;94925.66;;;-1.63;100.00
40245;BME280;25963;42.694;23.600;2023-04-07T03:07:03;94946.41;;;-1.37;100.00
40245;BME280;25963;42.694;23.600;2023-04-07T03:09:29;94930.72;;;-1.35;100.00
40245;BME280;25963;42.694;23.600;2023-04-07T03:11:54;94940.53;;;-1.21;100.00
40245;BME280;25963;42.694;23.600;2023-04-07T03:14:20;94935.66;;;-1.24;100.00
40245;BME280;25963;42.694;23.600;2023-04-07T03:16:46;94914.84;;;-1.41;100.00
40245;BME280;25963;42.694;23.600;2023-04-07T03:19:12;94936.34;;;-1.22;100.00
40245;BME280;25963;42.694;23.600;2023-04-07T03:21:37;94916.84;;;-1.34;100.00
40245;BME280;25963;42.694;23.600;2023-04-07T03:24:04;94916.00;;;-1.53;100.00
40245;BME280;25963;42.694;23.600;2023-04-07T03:26:30;94917.97;;;-1.55;100.00
40245;BME280;25963;42.694;23.600;2023-04-07T03:28:55;94922.63;;;-1.58;100.00
40245;BME280;25963;42.694;23.600;2023-04-07T03:31:21;94932.72;;;-1.47;100.00
40245;BME280;25963;42.694;23.600;2023-04-07T03:33:48;94924.75;;;-1.54;100.00
40245;BME280;25963;42.694;23.600;2023-04-07T03:36:14;94918.25;;;-1.58;100.00
40245;BME280;25963;42.694;23.600;2023-04-07T03:38:39;94924.53;;;-1.61;100.00
40245;BME280;25963;42.694;23.600;2023-04-07T03:41:04;94922.38;;;-1.65;100.00
40245;BME280;25963;42.694;23.600;2023-04-07T03:43:30;94920.84;;;-1.58;100.00
40245;BME280;25963;42.694;23.600;2023-04-07T03:45:56;94938.88;;;-1.66;100.00
40245;BME280;25963;42.694;23.600;2023-04-07T03:48:21;94922.44;;;-1.93;100.00
40245;BME280;25963;42.694;23.600;2023-04-07T03:50:47;94926.34;;;-1.89;100.00
40245;BME280;25963;42.694;23.600;2023-04-07T03:53:12;94937.25;;;-1.85;100.00
40245;BME280;25963;42.694;23.600;2023-04-07T03:55:41;94951.13;;;-1.86;100.00
40245;BME280;25963;42.694;23.600;2023-04-07T03:58:06;94937.97;;;-1.93;100.00
40245;BME280;25963;42.694;23.600;2023-04-07T04:00:32;94928.38;;;-2.00;100.00
40245;BME280;25963;42.694;23.600;2023-04-07T04:02:59;94940.25;;;-1.90;100.00
40245;BME280;25963;42.694;23.600;2023-04-07T04:05:25;94938.94;;;-1.94;100.00
40245;BME280;25963;42.694;23.600;2023-04-07T04:07:50;94948.53;;;-1.86;100.00
40245;BME280;25963;42.694;23.600;2023-04-07T04:10:20;94949.50;;;-1.87;100.00
40245;BME280;25963;42.694;23.600;2023-04-07T04:12:46;94943.81;;;-1.91;100.00
40245;BME280;25963;42.694;23.600;2023-04-07T04:15:12;94954.22;;;-1.83;100.00
40245;BME280;25963;42.694;23.600;2023-04-07T04:17:38;94968.03;;;-1.74;100.00
40245;BME280;25963;42.694;23.600;2023-04-07T04:20:04;94963.25;;;-1.69;100.00
40245;BME280;25963;42.694;23.600;2023-04-07T04:22:30;94950.53;;;-1.62;100.00
40245;BME280;25963;42.694;23.600;2023-04-07T04:24:55;94934.50;;;-1.66;100.00
40245;BME280;25963;42.694;23.600;2023-04-07T04:27:21;94976.69;;;-1.29;100.00
40245;BME280;25963;42.694;23.600;2023-04-07T04:29:46;94956.91;;;-1.39;100.00
40245;BME280;25963;42.694;23.600;2023-04-07T04:32:13;94956.25;;;-1.41;100.00
40245;BME280;25963;42.694;23.600;2023-04-07T04:34:38;94961.44;;;-1.41;100.00
40245;BME280;25963;42.694;23.600;2023-04-07T04:37:06;94988.44;;;-1.17;100.00
40245;BME280;25963;42.694;23.600;2023-04-07T04:39:32;94979.44;;;-1.13;100.00
40245;BME280;25963;42.694;23.600;2023-04-07T04:41:57;94978.53;;;-1.04;100.00
40245;BME280;25963;42.694;23.600;2023-04-07T04:44:23;94975.88;;;-1.12;100.00
40245;BME280;25963;42.694;23.600;2023-04-07T04:46:48;94989.00;;;-0.87;100.00
40245;BME280;25963;42.694;23.600;2023-04-07T04:49:14;94985.19;;;-0.75;100.00
40245;BME280;25963;42.694;23.600;2023-04-07T04:51:40;94979.72;;;-0.72;100.00
40245;BME280;25963;42.694;23.600;2023-04-07T04:54:06;94984.56;;;-0.77;100.00
40245;BME280;25963;42.694;23.600;2023-04-07T04:56:32;94980.31;;;-0.78;100.00
40245;BME280;25963;42.694;23.600;2023-04-07T04:58:57;94976.81;;;-0.69;100.00
40245;BME280;25963;42.694;23.600;2023-04-07T05:01:23;94979.78;;;-0.64;100.00
40245;BME280;25963;42.694;23.600;2023-04-07T05:03:48;94991.59;;;-0.35;100.00
40245;BME280;25963;42.694;23.600;2023-04-07T05:06:14;94977.84;;;-0.36;100.00
40245;BME280;25963;42.694;23.600;2023-04-07T05:08:58;94993.56;;;-0.29;100.00
40245;BME280;25963;42.694;23.600;2023-04-07T05:11:23;94988.44;;;-0.13;100.00
40245;BME280;25963;42.694;23.600;2023-04-07T05:13:48;94990.16;;;0.05;100.00
40245;BME280;25963;42.694;23.600;2023-04-07T05:16:14;94980.97;;;0.18;100.00
40245;BME280;25963;42.694;23.600;2023-04-07T05:18:39;94999.97;;;0.27;100.00
40245;BME280;25963;42.694;23.600;2023-04-07T05:21:05;94993.69;;;0.46;100.00
40245;BME280;25963;42.694;23.600;2023-04-07T05:23:31;94993.69;;;0.62;100.00
40245;BME280;25963;42.694;23.600;2023-04-07T05:25:56;94994.19;;;0.74;100.00
40245;BME280;25963;42.694;23.600;2023-04-07T05:28:22;94989.50;;;0.86;100.00
40245;BME280;25963;42.694;23.600;2023-04-07T05:30:47;94997.94;;;1.12;100.00
40245;BME280;25963;42.694;23.600;2023-04-07T05:33:13;94991.13;;;1.20;100.00
40245;BME280;25963;42.694;23.600;2023-04-07T05:35:38;95009.44;;;1.51;100.00
40245;BME280;25963;42.694;23.600;2023-04-07T05:38:07;95002.25;;;1.69;100.00
40245;BME280;25963;42.694;23.600;2023-04-07T05:40:32;95007.47;;;2.17;100.00
40245;BME280;25963;42.694;23.600;2023-04-07T05:42:57;94973.91;;;2.30;100.00
40245;BME280;25963;42.694;23.600;2023-04-07T05:45:23;95007.53;;;2.94;97.10
40245;BME280;25963;42.694;23.600;2023-04-07T05:47:48;95002.34;;;2.94;93.90
40245;BME280;25963;42.694;23.600;2023-04-07T05:50:15;95015.63;;;2.99;94.24
40245;BME280;25963;42.694;23.600;2023-04-07T05:52:41;95001.94;;;2.82;94.94
40245;BME280;25963;42.694;23.600;2023-04-07T05:55:07;95017.25;;;2.77;93.38
40245;BME280;25963;42.694;23.600;2023-04-07T05:57:32;95024.56;;;2.82;93.21
40245;BME280;25963;42.694;23.600;2023-04-07T05:59:59;95008.69;;;2.91;93.15
40245;BME280;25963;42.694;23.600;2023-04-07T06:02:24;95020.00;;;3.07;94.15
40245;BME280;25963;42.694;23.600;2023-04-07T06:04:50;95019.34;;;2.82;92.95
40245;BME280;25963;42.694;23.600;2023-04-07T06:07:16;95014.59;;;2.85;96.11
40245;BME280;25963;42.694;23.600;2023-04-07T06:09:41;95014.03;;;2.98;92.50
40245;BME280;25963;42.694;23.600;2023-04-07T06:12:07;95015.19;;;3.18;88.69
40245;BME280;25963;42.694;23.600;2023-04-07T06:14:33;95026.41;;;3.19;90.55
40245;BME280;25963;42.694;23.600;2023-04-07T06:16:59;94995.28;;;3.03;89.87
40245;BME280;25963;42.694;23.600;2023-04-07T06:19:24;94997.44;;;3.37;88.80
40245;BME280;25963;42.694;23.600;2023-04-07T06:21:51;95023.81;;;3.57;86.04
40245;BME280;25963;42.694;23.600;2023-04-07T06:24:17;95032.38;;;3.65;83.30
40245;BME280;25963;42.694;23.600;2023-04-07T06:26:43;95025.09;;;3.76;84.32
40245;BME280;25963;42.694;23.600;2023-04-07T06:29:09;95010.81;;;4.01;81.53
40245;BME280;25963;42.694;23.600;2023-04-07T06:32:01;94999.38;;;4.17;77.75
40245;BME280;25963;42.694;23.600;2023-04-07T06:34:26;95013.81;;;4.64;78.76
40245;BME280;25963;42.694;23.600;2023-04-07T06:36:52;95002.41;;;4.72;76.29
40245;BME280;25963;42.694;23.600;2023-04-07T06:39:17;95015.75;;;4.98;73.51
40245;BME280;25963;42.694;23.600;2023-04-07T06:41:43;95014.13;;;5.40;77.14
40245;BME280;25963;42.694;23.600;2023-04-07T06:44:09;95012.38;;;5.69;77.30
40245;BME280;25963;42.694;23.600;2023-04-07T06:46:35;95010.03;;;5.81;68.74
40245;BME280;25963;42.694;23.600;2023-04-07T06:49:08;95018.91;;;6.14;71.43
40245;BME280;25963;42.694;23.600;2023-04-07T06:51:33;95018.28;;;6.12;64.43
40245;BME280;25963;42.694;23.600;2023-04-07T06:53:59;95024.72;;;6.45;64.19
40245;BME280;25963;42.694;23.600;2023-04-07T06:56:25;95020.78;;;6.69;59.18
40245;BME280;25963;42.694;23.600;2023-04-07T06:58:51;95015.47;;;7.23;56.27
40245;BME280;25963;42.694;23.600;2023-04-07T07:01:16;95013.88;;;7.62;57.66
40245;BME280;25963;42.694;23.600;2023-04-07T07:03:42;95000.31;;;7.98;62.06
40245;BME280;25963;42.694;23.600;2023-04-07T07:06:07;94999.91;;;7.95;53.52
40245;BME280;25963;42.694;23.600;2023-04-07T07:08:33;95002.72;;;8.20;51.01
40245;BME280;25963;42.694;23.600;2023-04-07T07:10:58;94995.38;;;8.42;54.62
40245;BME280;25963;42.694;23.600;2023-04-07T07:13:25;95002.25;;;8.88;52.61
40245;BME280;25963;42.694;23.600;2023-04-07T07:15:51;94994.50;;;9.06;54.40
40245;BME280;25963;42.694;23.600;2023-04-07T07:18:17;94993.97;;;9.23;55.46
40245;BME280;25963;42.694;23.600;2023-04-07T07:20:43;94976.03;;;9.38;52.44
40245;BME280;25963;42.694;23.600;2023-04-07T07:23:09;94967.50;;;9.68;54.81
40245;BME280;25963;42.694;23.600;2023-04-07T07:25:35;95000.81;;;10.05;54.05
40245;BME280;25963;42.694;23.600;2023-04-07T07:28:00;95005.91;;;10.00;50.05
40245;BME280;25963;42.694;23.600;2023-04-07T07:30:26;94984.91;;;10.12;53.26
40245;BME280;25963;42.694;23.600;2023-04-07T07:32:52;95002.84;;;10.22;53.82
40245;BME280;25963;42.694;23.600;2023-04-07T07:35:21;94993.47;;;10.07;48.39
40245;BME280;25963;42.694;23.600;2023-04-07T07:37:47;95001.03;;;10.22;45.07
40245;BME280;25963;42.694;23.600;2023-04-07T07:40:13;94967.69;;;9.91;47.07
40245;BME280;25963;42.694;23.600;2023-04-07T07:42:39;94991.63;;;10.33;51.12
40245;BME280;25963;42.694;23.600;2023-04-07T07:45:05;94999.38;;;10.46;53.96
40245;BME280;25963;42.694;23.600;2023-04-07T07:47:31;94998.13;;;10.67;50.19
40245;BME280;25963;42.694;23.600;2023-04-07T07:49:57;95008.59;;;10.37;46.17
40245;BME280;25963;42.694;23.600;2023-04-07T07:52:31;95000.59;;;10.25;43.74
40245;BME280;25963;42.694;23.600;2023-04-07T07:54:57;95005.81;;;10.69;48.58
40245;BME280;25963;42.694;23.600;2023-04-07T07:57:22;94986.34;;;10.33;48.62
40245;BME280;25963;42.694;23.600;2023-04-07T07:59:48;94977.53;;;10.76;48.53
40245;BME280;25963;42.694;23.600;2023-04-07T08:02:13;95010.91;;;11.01;48.59
40245;BME280;25963;42.694;23.600;2023-04-07T08:04:39;95003.41;;;10.97;43.57
40245;BME280;25963;42.694;23.600;2023-04-07T08:07:04;95000.31;;;11.19;47.15
40245;BME280;25963;42.694;23.600;2023-04-07T08:09:30;95003.66;;;10.96;42.38
40245;BME280;25963;42.694;23.600;2023-04-07T08:11:57;95007.09;;;10.96;43.80
40245;BME280;25963;42.694;23.600;2023-04-07T08:14:22;95005.41;;;11.02;43.71
40245;BME280;25963;42.694;23.600;2023-04-07T08:16:48;95005.38;;;10.72;44.17
40245;BME280;25963;42.694;23.600;2023-04-07T08:19:13;95004.31;;;11.10;42.31
40245;BME280;25963;42.694;23.600;2023-04-07T08:21:39;94989.72;;;11.49;45.84
40245;BME280;25963;42.694;23.600;2023-04-07T08:24:05;94997.44;;;11.74;44.71
40245;BME280;25963;42.694;23.600;2023-04-07T08:26:32;95002.28;;;11.35;42.96
40245;BME280;25963;42.694;23.600;2023-04-07T08:28:57;94986.25;;;11.07;43.53
40245;BME280;25963;42.694;23.600;2023-04-07T08:31:23;95000.78;;;10.97;48.92
40245;BME280;25963;42.694;23.600;2023-04-07T08:33:52;95001.13;;;10.89;44.74
40245;BME280;25963;42.694;23.600;2023-04-07T08:36:26;94998.22;;;10.61;45.31
40245;BME280;25963;42.694;23.600;2023-04-07T08:38:53;95003.69;;;10.78;40.67
40245;BME280;25963;42.694;23.600;2023-04-07T08:41:39;95010.44;;;11.22;41.93
40245;BME280;25963;42.694;23.600;2023-04-07T08:44:06;95009.66;;;10.36;41.21
40245;BME280;25963;42.694;23.600;2023-04-07T08:46:32;95001.53;;;10.13;41.35
40245;BME280;25963;42.694;23.600;2023-04-07T08:48:59;95001.59;;;10.68;44.11
40245;BME280;25963;42.694;23.600;2023-04-07T08:51:29;94998.72;;;10.51;46.70
40245;BME280;25963;42.694;23.600;2023-04-07T08:54:08;95009.91;;;10.65;42.01
40245;BME280;25963;42.694;23.600;2023-04-07T08:56:37;95010.47;;;10.85;45.19
40245;BME280;25963;42.694;23.600;2023-04-07T08:59:04;95007.06;;;11.15;44.50
40245;BME280;25963;42.694;23.600;2023-04-07T09:01:31;94999.81;;;11.52;44.60
40245;BME280;25963;42.694;23.600;2023-04-07T09:03:57;95010.66;;;10.72;38.08
40245;BME280;25963;42.694;23.600;2023-04-07T09:06:23;95005.38;;;11.32;41.70
40245;BME280;25963;42.694;23.600;2023-04-07T09:08:49;94981.00;;;10.88;40.32
40245;BME280;25963;42.694;23.600;2023-04-07T09:11:14;95015.72;;;10.37;39.22
40245;BME280;25963;42.694;23.600;2023-04-07T09:13:40;95003.59;;;10.84;42.23
40245;BME280;25963;42.694;23.600;2023-04-07T09:16:06;95009.25;;;10.88;41.09
40245;BME280;25963;42.694;23.600;2023-04-07T09:18:31;95008.22;;;10.89;42.26
40245;BME280;25963;42.694;23.600;2023-04-07T09:21:03;94983.13;;;11.28;42.04
40245;BME280;25963;42.694;23.600;2023-04-07T09:23:39;94996.22;;;11.35;39.28
40245;BME280;25963;42.694;23.600;2023-04-07T09:28:57;94990.28;;;11.09;39.21
40245;BME280;25963;42.694;23.600;2023-04-07T09:31:45;94999.78;;;10.99;39.13
40245;BME280;25963;42.694;23.600;2023-04-07T09:34:27;94999.94;;;11.15;43.68
40245;BME280;25963;42.694;23.600;2023-04-07T09:36:54;94998.88;;;10.56;41.70
40245;BME280;25963;42.694;23.600;2023-04-07T09:39:20;94998.75;;;10.07;40.09
40245;BME280;25963;42.694;23.600;2023-04-07T09:41:46;94997.69;;;10.52;42.05
40245;BME280;25963;42.694;23.600;2023-04-07T09:44:11;94999.22;;;10.78;45.82
40245;BME280;25963;42.694;23.600;2023-04-07T09:46:56;94999.25;;;10.41;39.04
40245;BME280;25963;42.694;23.600;2023-04-07T09:49:23;94990.53;;;10.59;40.77
40245;BME280;25963;42.694;23.600;2023-04-07T09:51:59;94989.56;;;10.72;41.87
40245;BME280;25963;42.694;23.600;2023-04-07T09:54:39;94996.22;;;11.35;44.13
40245;BME280;25963;42.694;23.600;2023-04-07T09:57:09;95003.56;;;10.54;39.22
40245;BME280;25963;42.694;23.600;2023-04-07T09:59:39;95002.75;;;10.54;43.53
40245;BME280;25963;42.694;23.600;2023-04-07T10:02:12;94992.47;;;10.64;39.94
40245;BME280;25963;42.694;23.600;2023-04-07T10:04:37;94999.97;;;11.27;41.88
40245;BME280;25963;42.694;23.600;2023-04-07T10:07:05;94991.16;;;11.33;42.07
40245;BME280;25963;42.694;23.600;2023-04-07T10:09:32;94973.63;;;11.51;42.71
40245;BME280;25963;42.694;23.600;2023-04-07T10:11:58;94962.53;;;11.96;42.15
40245;BME280;25963;42.694;23.600;2023-04-07T10:14:34;94997.94;;;12.18;39.04
40245;BME280;25963;42.694;23.600;2023-04-07T10:17:02;95009.09;;;11.43;38.27
40245;BME280;25963;42.694;23.600;2023-04-07T10:19:31;95012.22;;;11.10;40.24
40245;BME280;25963;42.694;23.600;2023-04-07T10:21:58;95006.28;;;10.66;41.64
40245;BME280;25963;42.694;23.600;2023-04-07T10:24:53;95006.53;;;10.76;41.91
40245;BME280;25963;42.694;23.600;2023-04-07T10:27:32;95003.72;;;10.16;42.13
40245;BME280;25963;42.694;23.600;2023-04-07T10:29:59;95004.16;;;9.94;42.93
40245;BME280;25963;42.694;23.600;2023-04-07T10:32:25;94992.06;;;10.48;44.89
40245;BME280;25963;42.694;23.600;2023-04-07T10:37:18;95013.31;;;11.02;47.27
40245;BME280;25963;42.694;23.600;2023-04-07T10:39:47;95013.81;;;11.11;42.06
40245;BME280;25963;42.694;23.600;2023-04-07T10:45:02;95000.13;;;11.02;40.67
40245;BME280;25963;42.694;23.600;2023-04-07T10:47:28;94994.31;;;11.54;45.61
40245;BME280;25963;42.694;23.600;2023-04-07T10:50:16;95009.13;;;11.55;40.19
40245;BME280;25963;42.694;23.600;2023-04-07T10:52:46;95009.59;;;11.52;39.83
40245;BME280;25963;42.694;23.600;2023-04-07T10:58:27;95012.00;;;11.53;42.00
40245;BME280;25963;42.694;23.600;2023-04-07T11:03:23;95006.38;;;10.89;40.07
40245;BME280;25963;42.694;23.600;2023-04-07T11:05:49;94999.25;;;11.62;41.39
40245;BME280;25963;42.694;23.600;2023-04-07T11:08:14;94987.59;;;12.05;44.78
40245;BME280;25963;42.694;23.600;2023-04-07T11:10:46;94984.34;;;12.26;39.58
40245;BME280;25963;42.694;23.600;2023-04-07T11:13:12;95009.38;;;11.65;38.39
40245;BME280;25963;42.694;23.600;2023-04-07T11:15:37;94999.66;;;11.35;39.11
40245;BME280;25963;42.694;23.600;2023-04-07T11:18:07;95013.72;;;11.59;41.48
40245;BME280;25963;42.694;23.600;2023-04-07T11:20:43;95003.41;;;11.81;40.05
40245;BME280;25963;42.694;23.600;2023-04-07T11:23:09;95014.03;;;11.51;40.56
40245;BME280;25963;42.694;23.600;2023-04-07T11:25:36;95011.06;;;11.48;40.30
40245;BME280;25963;42.694;23.600;2023-04-07T11:28:04;94996.19;;;11.23;40.33
40245;BME280;25963;42.694;23.600;2023-04-07T11:30:30;95017.66;;;11.27;41.70
40245;BME280;25963;42.694;23.600;2023-04-07T11:32:55;95017.69;;;10.78;40.35
40245;BME280;25963;42.694;23.600;2023-04-07T11:35:22;95021.03;;;10.85;40.10
40245;BME280;25963;42.694;23.600;2023-04-07T11:37:47;95016.84;;;10.96;40.32
40245;BME280;25963;42.694;23.600;2023-04-07T11:40:30;95021.44;;;11.19;39.97
40245;BME280;25963;42.694;23.600;2023-04-07T11:42:57;95027.50;;;11.19;40.96
40245;BME280;25963;42.694;23.600;2023-04-07T11:45:23;95012.75;;;11.42;41.81
40245;BME280;25963;42.694;23.600;2023-04-07T11:47:48;95009.28;;;11.30;40.04
40245;BME280;25963;42.694;23.600;2023-04-07T11:50:15;95022.59;;;11.65;40.94
40245;BME280;25963;42.694;23.600;2023-04-07T11:52:46;95003.34;;;12.00;40.36
40245;BME280;25963;42.694;23.600;2023-04-07T11:55:20;94992.41;;;12.08;44.25
40245;BME280;25963;42.694;23.600;2023-04-07T11:57:46;95011.97;;;12.30;39.74
40245;BME280;25963;42.694;23.600;2023-04-07T12:00:13;95002.84;;;12.50;41.46
40245;BME280;25963;42.694;23.600;2023-04-07T12:02:40;95011.94;;;12.54;40.07
40245;BME280;25963;42.694;23.600;2023-04-07T12:05:06;95014.41;;;11.55;38.91
40245;BME280;25963;42.694;23.600;2023-04-07T12:07:37;95003.81;;;12.08;39.96
40245;BME280;25963;42.694;23.600;2023-04-07T12:10:20;95007.25;;;12.32;38.34
40245;BME280;25963;42.694;23.600;2023-04-07T12:12:47;95008.06;;;12.09;39.08
40245;BME280;25963;42.694;23.600;2023-04-07T12:15:13;95000.50;;;11.59;39.13
40245;BME280;25963;42.694;23.600;2023-04-07T12:17:43;95010.28;;;11.59;39.88
40245;BME280;25963;42.694;23.600;2023-04-07T12:20:10;94998.06;;;12.12;40.38
40245;BME280;25963;42.694;23.600;2023-04-07T12:22:36;94995.41;;;12.23;39.85
40245;BME280;25963;42.694;23.600;2023-04-07T12:25:02;95001.34;;;12.54;40.65
40245;BME280;25963;42.694;23.600;2023-04-07T12:27:27;94979.78;;;12.74;39.49
40245;BME280;25963;42.694;23.600;2023-04-07T12:29:52;95010.25;;;12.36;38.68
40245;BME280;25963;42.694;23.600;2023-04-07T12:32:18;95017.13;;;11.90;38.44
40245;BME280;25963;42.694;23.600;2023-04-07T12:34:44;94996.31;;;12.17;38.32
40245;BME280;25963;42.694;23.600;2023-04-07T12:37:09;94989.22;;;12.06;40.32
40245;BME280;25963;42.694;23.600;2023-04-07T12:39:35;95001.56;;;12.64;40.52
40245;BME280;25963;42.694;23.600;2023-04-07T12:42:00;95005.38;;;12.97;38.91
40245;BME280;25963;42.694;23.600;2023-04-07T12:44:25;95010.59;;;12.80;41.08
40245;BME280;25963;42.694;23.600;2023-04-07T12:46:51;95010.13;;;13.23;42.47
40245;BME280;25963;42.694;23.600;2023-04-07T12:49:17;95006.72;;;12.59;38.16
40245;BME280;25963;42.694;23.600;2023-04-07T12:51:42;94998.53;;;12.84;38.70
40245;BME280;25963;42.694;23.600;2023-04-07T12:54:08;95007.47;;;13.23;38.19
40245;BME280;25963;42.694;23.600;2023-04-07T12:56:33;95009.50;;;13.33;37.96
40245;BME280;25963;42.694;23.600;2023-04-07T12:58:59;94976.59;;;12.60;36.26
40245;BME280;25963;42.694;23.600;2023-04-07T13:01:24;95004.31;;;12.69;39.54
40245;BME280;25963;42.694;23.600;2023-04-07T13:03:50;95011.94;;;12.42;38.15
40245;BME280;25963;42.694;23.600;2023-04-07T13:06:15;95009.31;;;12.19;40.13
40245;BME280;25963;42.694;23.600;2023-04-07T13:08:41;95009.53;;;11.28;38.20
40245;BME280;25963;42.694;23.600;2023-04-07T13:11:07;95023.38;;;11.65;41.23